sensor_id;sensor_type;location;lat;lon;timestamp;temperature;humidity
47618;DHT22;33336;36.728;-4.414;2023-09-19T00:03:51;25.30;90.70
47618;DHT22;33336;36.728;-4.414;2023-09-19T00:08:54;25.80;90.40
47618;DHT22;33336;36.728;-4.414;2023-09-19T00:13:59;25.50;90.60
47618;DHT22;33336;36.728;-4.414;2023-09-19T00:19:02;25.10;90.70
47618;DHT22;33336;36.728;-4.414;2023-09-19T00:24:06;25.10;90.80
47618;DHT22;33336;36.728;-4.414;2023-09-19T00:29:11;25.70;90.30
47618;DHT22;33336;36.728;-4.414;2023-09-19T00:34:18;25.20;90.40
47618;DHT22;33336;36.728;-4.414;2023-09-19T00:39:21;25.80;90.10
47618;DHT22;33336;36.728;-4.414;2023-09-19T00:44:28;25.60;90.10
47618;DHT22;33336;36.728;-4.414;2023-09-19T00:49:32;25.40;90.00
47618;DHT22;33336;36.728;-4.414;2023-09-19T00:54:35;25.10;90.10
47618;DHT22;33336;36.728;-4.414;2023-09-19T00:59:39;25.00;90.50
47618;DHT22;33336;36.728;-4.414;2023-09-19T01:04:43;25.00;90.60
47618;DHT22;33336;36.728;-4.414;2023-09-19T01:09:46;24.90;90.80
47618;DHT22;33336;36.728;-4.414;2023-09-19T01:14:55;24.60;91.10
47618;DHT22;33336;36.728;-4.414;2023-09-19T01:20:17;24.70;91.10
47618;DHT22;33336;36.728;-4.414;2023-09-19T01:31:11;25.20;90.70
47618;DHT22;33336;36.728;-4.414;2023-09-19T01:36:15;25.30;90.30
47618;DHT22;33336;36.728;-4.414;2023-09-19T01:41:21;25.10;90.70
47618;DHT22;33336;36.728;-4.414;2023-09-19T01:46:33;25.00;90.80
47618;DHT22;33336;36.728;-4.414;2023-09-19T01:51:45;25.60;90.70
47618;DHT22;33336;36.728;-4.414;2023-09-19T01:56:56;25.70;90.60
47618;DHT22;33336;36.728;-4.414;2023-09-19T02:02:02;25.30;90.80
47618;DHT22;33336;36.728;-4.414;2023-09-19T02:07:08;25.40;90.50
47618;DHT22;33336;36.728;-4.414;2023-09-19T02:12:11;25.60;90.70
47618;DHT22;33336;36.728;-4.414;2023-09-19T02:17:16;25.80;90.60
47618;DHT22;33336;36.728;-4.414;2023-09-19T02:22:19;25.40;90.70
47618;DHT22;33336;36.728;-4.414;2023-09-19T02:27:23;25.50;90.70
47618;DHT22;33336;36.728;-4.414;2023-09-19T02:32:27;25.60;90.40
47618;DHT22;33336;36.728;-4.414;2023-09-19T02:37:31;25.00;90.60
47618;DHT22;33336;36.728;-4.414;2023-09-19T02:42:34;25.30;90.60
47618;DHT22;33336;36.728;-4.414;2023-09-19T02:47:40;24.90;90.70
47618;DHT22;33336;36.728;-4.414;2023-09-19T02:52:43;23.90;91.50
47618;DHT22;33336;36.728;-4.414;2023-09-19T02:57:47;24.40;91.00
47618;DHT22;33336;36.728;-4.414;2023-09-19T03:02:53;24.70;91.20
47618;DHT22;33336;36.728;-4.414;2023-09-19T03:07:57;24.40;91.10
47618;DHT22;33336;36.728;-4.414;2023-09-19T03:13:02;24.40;91.50
47618;DHT22;33336;36.728;-4.414;2023-09-19T03:18:06;24.50;91.40
47618;DHT22;33336;36.728;-4.414;2023-09-19T03:23:09;24.60;91.40
47618;DHT22;33336;36.728;-4.414;2023-09-19T03:28:13;24.80;91.00
47618;DHT22;33336;36.728;-4.414;2023-09-19T03:33:18;24.70;90.90
47618;DHT22;33336;36.728;-4.414;2023-09-19T03:38:22;24.30;91.20
47618;DHT22;33336;36.728;-4.414;2023-09-19T03:43:24;24.50;91.30
47618;DHT22;33336;36.728;-4.414;2023-09-19T03:48:29;24.00;91.60
47618;DHT22;33336;36.728;-4.414;2023-09-19T03:53:32;24.30;91.40
47618;DHT22;33336;36.728;-4.414;2023-09-19T03:58:36;24.00;91.70
47618;DHT22;33336;36.728;-4.414;2023-09-19T04:03:42;23.50;92.40
47618;DHT22;33336;36.728;-4.414;2023-09-19T04:08:54;23.50;92.40
47618;DHT22;33336;36.728;-4.414;2023-09-19T04:13:58;23.20;92.70
47618;DHT22;33336;36.728;-4.414;2023-09-19T04:19:03;23.30;92.60
47618;DHT22;33336;36.728;-4.414;2023-09-19T04:24:07;23.40;92.80
47618;DHT22;33336;36.728;-4.414;2023-09-19T04:29:11;23.50;93.40
47618;DHT22;33336;36.728;-4.414;2023-09-19T04:34:16;23.30;94.60
47618;DHT22;33336;36.728;-4.414;2023-09-19T04:39:21;22.90;95.90
47618;DHT22;33336;36.728;-4.414;2023-09-19T04:44:28;23.00;96.10
47618;DHT22;33336;36.728;-4.414;2023-09-19T04:49:32;23.20;95.80
47618;DHT22;33336;36.728;-4.414;2023-09-19T04:54:36;23.30;95.90
47618;DHT22;33336;36.728;-4.414;2023-09-19T04:59:41;23.30;96.30
47618;DHT22;33336;36.728;-4.414;2023-09-19T05:04:45;23.60;96.00
47618;DHT22;33336;36.728;-4.414;2023-09-19T05:09:49;23.30;96.60
47618;DHT22;33336;36.728;-4.414;2023-09-19T05:14:51;23.30;96.60
47618;DHT22;33336;36.728;-4.414;2023-09-19T05:19:55;23.00;96.90
47618;DHT22;33336;36.728;-4.414;2023-09-19T05:25:00;23.50;96.50
47618;DHT22;33336;36.728;-4.414;2023-09-19T05:30:06;23.30;96.50
47618;DHT22;33336;36.728;-4.414;2023-09-19T05:35:11;23.50;96.40
47618;DHT22;33336;36.728;-4.414;2023-09-19T05:40:14;23.20;95.70
47618;DHT22;33336;36.728;-4.414;2023-09-19T05:45:18;23.10;96.00
47618;DHT22;33336;36.728;-4.414;2023-09-19T05:50:25;23.10;94.90
47618;DHT22;33336;36.728;-4.414;2023-09-19T05:55:27;23.30;94.20
47618;DHT22;33336;36.728;-4.414;2023-09-19T06:00:31;23.30;94.30
47618;DHT22;33336;36.728;-4.414;2023-09-19T06:05:36;23.30;94.20
47618;DHT22;33336;36.728;-4.414;2023-09-19T06:10:42;23.30;93.90
47618;DHT22;33336;36.728;-4.414;2023-09-19T06:15:45;23.10;94.40
47618;DHT22;33336;36.728;-4.414;2023-09-19T06:20:50;23.60;94.10
47618;DHT22;33336;36.728;-4.414;2023-09-19T06:25:53;23.50;93.90
47618;DHT22;33336;36.728;-4.414;2023-09-19T06:30:56;23.70;93.50
47618;DHT22;33336;36.728;-4.414;2023-09-19T06:36:03;23.40;93.60
47618;DHT22;33336;36.728;-4.414;2023-09-19T06:41:06;23.50;93.60
47618;DHT22;33336;36.728;-4.414;2023-09-19T06:46:10;23.80;93.50
47618;DHT22;33336;36.728;-4.414;2023-09-19T06:51:15;24.20;93.00
47618;DHT22;33336;36.728;-4.414;2023-09-19T06:56:18;23.90;92.80
47618;DHT22;33336;36.728;-4.414;2023-09-19T07:01:26;23.70;92.90
47618;DHT22;33336;36.728;-4.414;2023-09-19T07:06:31;23.40;93.20
47618;DHT22;33336;36.728;-4.414;2023-09-19T07:11:34;23.40;93.60
47618;DHT22;33336;36.728;-4.414;2023-09-19T07:16:38;23.50;93.50
47618;DHT22;33336;36.728;-4.414;2023-09-19T07:21:45;23.80;93.50
47618;DHT22;33336;36.728;-4.414;2023-09-19T07:26:48;23.90;93.00
47618;DHT22;33336;36.728;-4.414;2023-09-19T07:31:51;24.50;92.60
47618;DHT22;33336;36.728;-4.414;2023-09-19T07:36:56;24.70;92.80
47618;DHT22;33336;36.728;-4.414;2023-09-19T07:41:59;24.30;92.20
47618;DHT22;33336;36.728;-4.414;2023-09-19T07:47:03;24.40;92.90
47618;DHT22;33336;36.728;-4.414;2023-09-19T07:52:07;24.30;92.70
47618;DHT22;33336;36.728;-4.414;2023-09-19T07:57:10;24.50;92.50
47618;DHT22;33336;36.728;-4.414;2023-09-19T08:02:13;25.30;92.30
47618;DHT22;33336;36.728;-4.414;2023-09-19T08:07:20;25.40;92.30
47618;DHT22;33336;36.728;-4.414;2023-09-19T08:12:24;25.40;92.10
47618;DHT22;33336;36.728;-4.414;2023-09-19T08:17:27;25.70;92.00
47618;DHT22;33336;36.728;-4.414;2023-09-19T08:22:32;25.60;91.80
47618;DHT22;33336;36.728;-4.414;2023-09-19T08:27:36;26.10;91.70
47618;DHT22;33336;36.728;-4.414;2023-09-19T08:32:38;25.90;91.70
47618;DHT22;33336;36.728;-4.414;2023-09-19T08:37:45;26.30;91.60
47618;DHT22;33336;36.728;-4.414;2023-09-19T08:42:49;26.00;91.30
47618;DHT22;33336;36.728;-4.414;2023-09-19T08:48:10;26.20;91.50
47618;DHT22;33336;36.728;-4.414;2023-09-19T08:53:21;26.20;91.50
47618;DHT22;33336;36.728;-4.414;2023-09-19T08:58:37;26.40;91.30
47618;DHT22;33336;36.728;-4.414;2023-09-19T09:03:43;26.30;91.60
47618;DHT22;33336;36.728;-4.414;2023-09-19T09:08:50;26.30;91.70
47618;DHT22;33336;36.728;-4.414;2023-09-19T09:13:53;26.50;91.90
47618;DHT22;33336;36.728;-4.414;2023-09-19T09:18:56;26.60;91.80
47618;DHT22;33336;36.728;-4.414;2023-09-19T09:24:27;26.50;92.30
47618;DHT22;33336;36.728;-4.414;2023-09-19T09:29:42;26.50;92.50
47618;DHT22;33336;36.728;-4.414;2023-09-19T09:34:46;26.80;92.50
47618;DHT22;33336;36.728;-4.414;2023-09-19T09:39:53;26.80;92.70
47618;DHT22;33336;36.728;-4.414;2023-09-19T09:45:15;26.90;92.60
47618;DHT22;33336;36.728;-4.414;2023-09-19T09:50:26;27.00;92.40
47618;DHT22;33336;36.728;-4.414;2023-09-19T09:56:02;27.10;92.50
47618;DHT22;33336;36.728;-4.414;2023-09-19T10:01:07;27.40;92.10
47618;DHT22;33336;36.728;-4.414;2023-09-19T10:06:17;27.20;92.20
47618;DHT22;33336;36.728;-4.414;2023-09-19T10:11:30;27.50;91.70
47618;DHT22;33336;36.728;-4.414;2023-09-19T10:16:34;28.00;91.50
47618;DHT22;33336;36.728;-4.414;2023-09-19T10:21:39;28.10;91.50
47618;DHT22;33336;36.728;-4.414;2023-09-19T10:26:47;27.90;91.20
47618;DHT22;33336;36.728;-4.414;2023-09-19T10:31:53;28.20;92.10
47618;DHT22;33336;36.728;-4.414;2023-09-19T10:36:56;27.80;94.20
47618;DHT22;33336;36.728;-4.414;2023-09-19T10:42:02;28.10;95.30
47618;DHT22;33336;36.728;-4.414;2023-09-19T10:47:06;29.40;94.20
47618;DHT22;33336;36.728;-4.414;2023-09-19T10:52:10;29.50;95.40
47618;DHT22;33336;36.728;-4.414;2023-09-19T10:57:21;28.80;96.20
47618;DHT22;33336;36.728;-4.414;2023-09-19T11:02:25;28.00;97.30
47618;DHT22;33336;36.728;-4.414;2023-09-19T11:07:28;28.30;96.80
47618;DHT22;33336;36.728;-4.414;2023-09-19T11:12:55;29.00;96.60
47618;DHT22;33336;36.728;-4.414;2023-09-19T11:17:59;29.20;96.30
47618;DHT22;33336;36.728;-4.414;2023-09-19T11:23:21;28.70;96.70
47618;DHT22;33336;36.728;-4.414;2023-09-19T11:28:31;29.00;96.40
47618;DHT22;33336;36.728;-4.414;2023-09-19T11:33:34;28.70;96.60
47618;DHT22;33336;36.728;-4.414;2023-09-19T11:39:00;28.90;96.80
47618;DHT22;33336;36.728;-4.414;2023-09-19T11:44:33;29.50;96.70
47618;DHT22;33336;36.728;-4.414;2023-09-19T11:49:42;28.40;98.70
47618;DHT22;33336;36.728;-4.414;2023-09-19T11:54:47;28.20;99.70
47618;DHT22;33336;36.728;-4.414;2023-09-19T11:59:54;28.80;99.50
47618;DHT22;33336;36.728;-4.414;2023-09-19T12:04:59;29.50;98.50
47618;DHT22;33336;36.728;-4.414;2023-09-19T12:10:04;29.50;98.90
47618;DHT22;33336;36.728;-4.414;2023-09-19T12:15:10;29.90;98.40
47618;DHT22;33336;36.728;-4.414;2023-09-19T12:20:14;30.00;98.80
47618;DHT22;33336;36.728;-4.414;2023-09-19T12:25:18;30.60;98.20
47618;DHT22;33336;36.728;-4.414;2023-09-19T12:30:28;30.20;98.80
47618;DHT22;33336;36.728;-4.414;2023-09-19T12:35:34;30.10;99.40
47618;DHT22;33336;36.728;-4.414;2023-09-19T12:40:38;30.30;99.00
47618;DHT22;33336;36.728;-4.414;2023-09-19T12:45:46;30.60;98.20
47618;DHT22;33336;36.728;-4.414;2023-09-19T12:51:05;30.70;98.20
47618;DHT22;33336;36.728;-4.414;2023-09-19T12:56:09;30.80;98.00
47618;DHT22;33336;36.728;-4.414;2023-09-19T13:01:15;30.50;98.10
47618;DHT22;33336;36.728;-4.414;2023-09-19T13:06:34;30.00;98.30
47618;DHT22;33336;36.728;-4.414;2023-09-19T13:11:40;30.20;97.90
47618;DHT22;33336;36.728;-4.414;2023-09-19T13:16:56;30.00;98.00
47618;DHT22;33336;36.728;-4.414;2023-09-19T13:21:59;30.60;97.40
47618;DHT22;33336;36.728;-4.414;2023-09-19T13:27:04;30.80;97.60
47618;DHT22;33336;36.728;-4.414;2023-09-19T13:32:09;30.20;98.00
47618;DHT22;33336;36.728;-4.414;2023-09-19T13:37:13;30.80;97.60
47618;DHT22;33336;36.728;-4.414;2023-09-19T13:42:18;30.70;97.40
47618;DHT22;33336;36.728;-4.414;2023-09-19T13:47:25;30.60;97.00
47618;DHT22;33336;36.728;-4.414;2023-09-19T13:52:29;30.40;97.50
47618;DHT22;33336;36.728;-4.414;2023-09-19T13:57:32;30.60;97.30
47618;DHT22;33336;36.728;-4.414;2023-09-19T14:02:36;30.60;97.20
47618;DHT22;33336;36.728;-4.414;2023-09-19T14:07:40;30.40;97.10
47618;DHT22;33336;36.728;-4.414;2023-09-19T14:12:45;31.00;97.30
47618;DHT22;33336;36.728;-4.414;2023-09-19T14:17:49;30.30;97.00
47618;DHT22;33336;36.728;-4.414;2023-09-19T14:22:53;31.50;96.50
47618;DHT22;33336;36.728;-4.414;2023-09-19T14:27:56;31.20;95.90
47618;DHT22;33336;36.728;-4.414;2023-09-19T14:33:00;31.60;96.00
47618;DHT22;33336;36.728;-4.414;2023-09-19T14:38:04;30.80;95.70
47618;DHT22;33336;36.728;-4.414;2023-09-19T14:43:07;31.00;93.40
47618;DHT22;33336;36.728;-4.414;2023-09-19T14:48:12;31.50;93.90
47618;DHT22;33336;36.728;-4.414;2023-09-19T14:53:14;31.30;94.30
47618;DHT22;33336;36.728;-4.414;2023-09-19T14:58:18;31.10;94.40
47618;DHT22;33336;36.728;-4.414;2023-09-19T15:03:25;31.20;94.30
47618;DHT22;33336;36.728;-4.414;2023-09-19T15:08:30;31.10;93.60
47618;DHT22;33336;36.728;-4.414;2023-09-19T15:13:36;31.00;94.40
47618;DHT22;33336;36.728;-4.414;2023-09-19T15:18:41;31.60;93.60
47618;DHT22;33336;36.728;-4.414;2023-09-19T15:23:45;32.00;93.60
47618;DHT22;33336;36.728;-4.414;2023-09-19T15:28:48;32.40;93.50
47618;DHT22;33336;36.728;-4.414;2023-09-19T15:33:53;31.30;93.40
47618;DHT22;33336;36.728;-4.414;2023-09-19T15:39:00;31.90;93.30
47618;DHT22;33336;36.728;-4.414;2023-09-19T15:44:11;31.70;93.40
47618;DHT22;33336;36.728;-4.414;2023-09-19T15:49:16;32.10;92.90
47618;DHT22;33336;36.728;-4.414;2023-09-19T15:54:18;32.10;92.80
47618;DHT22;33336;36.728;-4.414;2023-09-19T15:59:25;31.80;93.10
47618;DHT22;33336;36.728;-4.414;2023-09-19T16:04:29;32.10;92.80
47618;DHT22;33336;36.728;-4.414;2023-09-19T16:09:34;31.90;93.40
47618;DHT22;33336;36.728;-4.414;2023-09-19T16:14:37;31.90;92.80
47618;DHT22;33336;36.728;-4.414;2023-09-19T16:19:42;31.70;92.80
47618;DHT22;33336;36.728;-4.414;2023-09-19T16:24:45;31.20;93.00
47618;DHT22;33336;36.728;-4.414;2023-09-19T16:29:47;30.90;92.10
47618;DHT22;33336;36.728;-4.414;2023-09-19T16:34:53;30.90;92.30
47618;DHT22;33336;36.728;-4.414;2023-09-19T16:39:55;31.40;92.50
47618;DHT22;33336;36.728;-4.414;2023-09-19T16:44:58;31.40;92.10
47618;DHT22;33336;36.728;-4.414;2023-09-19T16:50:03;32.30;91.50
47618;DHT22;33336;36.728;-4.414;2023-09-19T16:55:07;32.60;91.40
47618;DHT22;33336;36.728;-4.414;2023-09-19T17:00:11;32.40;91.30
47618;DHT22;33336;36.728;-4.414;2023-09-19T17:05:17;32.80;91.80
47618;DHT22;33336;36.728;-4.414;2023-09-19T17:10:20;32.50;92.10
47618;DHT22;33336;36.728;-4.414;2023-09-19T17:15:23;32.40;91.70
47618;DHT22;33336;36.728;-4.414;2023-09-19T17:20:29;32.20;91.70
47618;DHT22;33336;36.728;-4.414;2023-09-19T17:25:32;32.50;91.80
47618;DHT22;33336;36.728;-4.414;2023-09-19T17:30:36;32.40;92.00
47618;DHT22;33336;36.728;-4.414;2023-09-19T17:35:42;32.60;92.10
47618;DHT22;33336;36.728;-4.414;2023-09-19T17:40:45;32.50;91.70
47618;DHT22;33336;36.728;-4.414;2023-09-19T17:45:51;32.10;92.00
47618;DHT22;33336;36.728;-4.414;2023-09-19T17:51:00;32.10;92.00
47618;DHT22;33336;36.728;-4.414;2023-09-19T17:56:04;31.50;92.30
47618;DHT22;33336;36.728;-4.414;2023-09-19T18:01:11;31.60;91.60
47618;DHT22;33336;36.728;-4.414;2023-09-19T18:06:16;32.00;91.70
47618;DHT22;33336;36.728;-4.414;2023-09-19T18:11:20;31.10;91.90
47618;DHT22;33336;36.728;-4.414;2023-09-19T18:16:26;31.20;92.20
47618;DHT22;33336;36.728;-4.414;2023-09-19T18:21:34;31.20;92.30
47618;DHT22;33336;36.728;-4.414;2023-09-19T18:26:38;31.00;92.70
47618;DHT22;33336;36.728;-4.414;2023-09-19T18:31:42;31.00;92.90
47618;DHT22;33336;36.728;-4.414;2023-09-19T18:36:48;30.60;93.20
47618;DHT22;33336;36.728;-4.414;2023-09-19T18:41:51;30.20;93.60
47618;DHT22;33336;36.728;-4.414;2023-09-19T18:46:55;29.80;94.00
47618;DHT22;33336;36.728;-4.414;2023-09-19T18:52:00;29.70;94.00
47618;DHT22;33336;36.728;-4.414;2023-09-19T18:57:06;29.40;94.20
47618;DHT22;33336;36.728;-4.414;2023-09-19T19:02:12;29.30;94.30
47618;DHT22;33336;36.728;-4.414;2023-09-19T19:07:17;29.00;94.80
47618;DHT22;33336;36.728;-4.414;2023-09-19T19:12:23;28.90;94.80
47618;DHT22;33336;36.728;-4.414;2023-09-19T19:17:27;28.50;95.00
47618;DHT22;33336;36.728;-4.414;2023-09-19T19:22:35;27.70;95.90
47618;DHT22;33336;36.728;-4.414;2023-09-19T19:27:40;27.90;95.90
47618;DHT22;33336;36.728;-4.414;2023-09-19T19:32:46;27.30;98.20
47618;DHT22;33336;36.728;-4.414;2023-09-19T19:37:52;26.70;99.90
47618;DHT22;33336;36.728;-4.414;2023-09-19T19:42:57;26.70;99.90
47618;DHT22;33336;36.728;-4.414;2023-09-19T19:48:01;26.50;99.90
47618;DHT22;33336;36.728;-4.414;2023-09-19T19:53:07;26.30;99.90
47618;DHT22;33336;36.728;-4.414;2023-09-19T19:58:13;26.10;99.90
47618;DHT22;33336;36.728;-4.414;2023-09-19T20:03:18;27.00;99.90
47618;DHT22;33336;36.728;-4.414;2023-09-19T20:08:25;26.60;99.90
47618;DHT22;33336;36.728;-4.414;2023-09-19T20:13:29;26.90;99.90
47618;DHT22;33336;36.728;-4.414;2023-09-19T20:18:33;26.40;99.70
47618;DHT22;33336;36.728;-4.414;2023-09-19T20:23:39;26.50;99.70
47618;DHT22;33336;36.728;-4.414;2023-09-19T20:28:43;26.60;99.30
47618;DHT22;33336;36.728;-4.414;2023-09-19T20:33:48;26.60;98.60
47618;DHT22;33336;36.728;-4.414;2023-09-19T20:38:53;26.90;98.00
47618;DHT22;33336;36.728;-4.414;2023-09-19T20:43:59;27.30;97.50
47618;DHT22;33336;36.728;-4.414;2023-09-19T20:49:02;27.30;97.30
47618;DHT22;33336;36.728;-4.414;2023-09-19T20:54:07;27.30;97.40
47618;DHT22;33336;36.728;-4.414;2023-09-19T20:59:11;27.30;97.50
47618;DHT22;33336;36.728;-4.414;2023-09-19T21:04:14;27.10;97.90
47618;DHT22;33336;36.728;-4.414;2023-09-19T21:09:18;27.30;98.20
47618;DHT22;33336;36.728;-4.414;2023-09-19T21:14:22;27.30;98.10
47618;DHT22;33336;36.728;-4.414;2023-09-19T21:19:26;27.20;98.70
47618;DHT22;33336;36.728;-4.414;2023-09-19T21:24:31;27.10;98.40
47618;DHT22;33336;36.728;-4.414;2023-09-19T21:29:34;27.10;98.40
47618;DHT22;33336;36.728;-4.414;2023-09-19T21:34:37;27.00;98.80
47618;DHT22;33336;36.728;-4.414;2023-09-19T21:39:44;27.00;98.50
47618;DHT22;33336;36.728;-4.414;2023-09-19T21:44:48;27.00;98.50
47618;DHT22;33336;36.728;-4.414;2023-09-19T21:49:52;27.10;98.30
47618;DHT22;33336;36.728;-4.414;2023-09-19T21:54:57;27.00;98.10
47618;DHT22;33336;36.728;-4.414;2023-09-19T22:00:00;25.60;99.10
47618;DHT22;33336;36.728;-4.414;2023-09-19T22:05:05;25.60;99.70
47618;DHT22;33336;36.728;-4.414;2023-09-19T22:10:10;26.00;99.10
47618;DHT22;33336;36.728;-4.414;2023-09-19T22:15:14;25.60;99.40
47618;DHT22;33336;36.728;-4.414;2023-09-19T22:20:16;26.00;99.50
47618;DHT22;33336;36.728;-4.414;2023-09-19T22:25:29;26.40;99.10
47618;DHT22;33336;36.728;-4.414;2023-09-19T22:30:39;26.40;99.20
47618;DHT22;33336;36.728;-4.414;2023-09-19T22:35:47;26.60;98.70
47618;DHT22;33336;36.728;-4.414;2023-09-19T22:40:54;26.00;99.10
47618;DHT22;33336;36.728;-4.414;2023-09-19T22:46:06;26.20;99.20
47618;DHT22;33336;36.728;-4.414;2023-09-19T22:51:12;26.40;98.60
47618;DHT22;33336;36.728;-4.414;2023-09-19T22:56:26;26.40;99.10
47618;DHT22;33336;36.728;-4.414;2023-09-19T23:01:29;26.60;99.00
47618;DHT22;33336;36.728;-4.414;2023-09-19T23:06:38;26.40;98.90
47618;DHT22;33336;36.728;-4.414;2023-09-19T23:11:42;26.00;99.80
47618;DHT22;33336;36.728;-4.414;2023-09-19T23:16:47;26.30;99.40
47618;DHT22;33336;36.728;-4.414;2023-09-19T23:21:58;25.90;99.40
47618;DHT22;33336;36.728;-4.414;2023-09-19T23:27:12;25.80;99.80
47618;DHT22;33336;36.728;-4.414;2023-09-19T23:32:20;26.00;99.40
47618;DHT22;33336;36.728;-4.414;2023-09-19T23:37:23;26.00;98.70
47618;DHT22;33336;36.728;-4.414;2023-09-19T23:42:28;26.20;98.40
47618;DHT22;33336;36.728;-4.414;2023-09-19T23:47:32;26.20;98.20
47618;DHT22;33336;36.728;-4.414;2023-09-19T23:52:37;25.90;97.70
47618;DHT22;33336;36.728;-4.414;2023-09-19T23:57:42;25.90;97.40
